sensor_id;sensor_type;location;lat;lon;timestamp;P1;durP1;ratioP1;P2;durP2;ratioP2
6217;SDS011;3142;48.206;11.550;2023-02-12T00:00:56;27.23;;;18.97;;
6217;SDS011;3142;48.206;11.550;2023-02-12T00:03:24;26.30;;;18.53;;
6217;SDS011;3142;48.206;11.550;2023-02-12T00:05:50;27.40;;;18.63;;
6217;SDS011;3142;48.206;11.550;2023-02-12T00:08:17;29.03;;;18.83;;
6217;SDS011;3142;48.206;11.550;2023-02-12T00:10:44;28.50;;;18.93;;
6217;SDS011;3142;48.206;11.550;2023-02-12T00:13:11;26.90;;;18.40;;
6217;SDS011;3142;48.206;11.550;2023-02-12T00:15:39;28.10;;;18.33;;
6217;SDS011;3142;48.206;11.550;2023-02-12T00:18:06;29.07;;;18.13;;
6217;SDS011;3142;48.206;11.550;2023-02-12T00:20:34;27.30;;;19.40;;
6217;SDS011;3142;48.206;11.550;2023-02-12T00:23:02;29.80;;;20.27;;
6217;SDS011;3142;48.206;11.550;2023-02-12T00:25:29;26.30;;;17.87;;
6217;SDS011;3142;48.206;11.550;2023-02-12T00:27:55;27.13;;;18.50;;
6217;SDS011;3142;48.206;11.550;2023-02-12T00:30:22;27.20;;;18.50;;
6217;SDS011;3142;48.206;11.550;2023-02-12T00:32:48;28.10;;;17.53;;
6217;SDS011;3142;48.206;11.550;2023-02-12T00:35:15;28.77;;;18.07;;
6217;SDS011;3142;48.206;11.550;2023-02-12T00:37:42;28.07;;;18.10;;
6217;SDS011;3142;48.206;11.550;2023-02-12T00:40:09;27.30;;;18.10;;
6217;SDS011;3142;48.206;11.550;2023-02-12T00:42:36;25.50;;;18.03;;
6217;SDS011;3142;48.206;11.550;2023-02-12T00:45:02;24.50;;;17.57;;
6217;SDS011;3142;48.206;11.550;2023-02-12T00:47:29;24.00;;;17.03;;
6217;SDS011;3142;48.206;11.550;2023-02-12T00:49:55;25.70;;;17.43;;
6217;SDS011;3142;48.206;11.550;2023-02-12T00:52:22;25.83;;;17.67;;
6217;SDS011;3142;48.206;11.550;2023-02-12T00:54:50;24.97;;;18.30;;
6217;SDS011;3142;48.206;11.550;2023-02-12T00:57:16;28.87;;;17.67;;
6217;SDS011;3142;48.206;11.550;2023-02-12T00:59:42;26.23;;;18.23;;
6217;SDS011;3142;48.206;11.550;2023-02-12T01:02:09;26.57;;;17.57;;
6217;SDS011;3142;48.206;11.550;2023-02-12T01:04:35;25.20;;;16.67;;
6217;SDS011;3142;48.206;11.550;2023-02-12T01:07:02;26.27;;;18.03;;
6217;SDS011;3142;48.206;11.550;2023-02-12T01:09:28;26.10;;;16.93;;
6217;SDS011;3142;48.206;11.550;2023-02-12T01:11:56;28.83;;;18.90;;
6217;SDS011;3142;48.206;11.550;2023-02-12T01:14:22;28.07;;;18.43;;
6217;SDS011;3142;48.206;11.550;2023-02-12T01:16:49;27.23;;;18.43;;
6217;SDS011;3142;48.206;11.550;2023-02-12T01:19:15;25.97;;;18.43;;
6217;SDS011;3142;48.206;11.550;2023-02-12T01:21:41;25.00;;;17.60;;
6217;SDS011;3142;48.206;11.550;2023-02-12T01:24:08;29.10;;;18.10;;
6217;SDS011;3142;48.206;11.550;2023-02-12T01:26:35;23.27;;;17.37;;
6217;SDS011;3142;48.206;11.550;2023-02-12T01:29:03;25.93;;;17.40;;
6217;SDS011;3142;48.206;11.550;2023-02-12T01:31:33;29.17;;;17.50;;
6217;SDS011;3142;48.206;11.550;2023-02-12T01:34:01;24.47;;;17.53;;
6217;SDS011;3142;48.206;11.550;2023-02-12T01:36:29;28.90;;;17.37;;
6217;SDS011;3142;48.206;11.550;2023-02-12T01:38:56;26.00;;;17.67;;
6217;SDS011;3142;48.206;11.550;2023-02-12T01:41:24;27.03;;;17.87;;
6217;SDS011;3142;48.206;11.550;2023-02-12T01:44:09;26.07;;;18.10;;
6217;SDS011;3142;48.206;11.550;2023-02-12T01:46:38;25.80;;;17.07;;
6217;SDS011;3142;48.206;11.550;2023-02-12T01:49:06;23.73;;;17.83;;
6217;SDS011;3142;48.206;11.550;2023-02-12T01:51:35;29.33;;;19.13;;
6217;SDS011;3142;48.206;11.550;2023-02-12T01:54:03;29.50;;;17.80;;
6217;SDS011;3142;48.206;11.550;2023-02-12T01:56:32;25.87;;;18.70;;
6217;SDS011;3142;48.206;11.550;2023-02-12T01:58:59;29.33;;;19.53;;
6217;SDS011;3142;48.206;11.550;2023-02-12T02:01:27;35.57;;;18.67;;
6217;SDS011;3142;48.206;11.550;2023-02-12T02:03:56;24.13;;;17.00;;
6217;SDS011;3142;48.206;11.550;2023-02-12T02:06:26;27.00;;;18.30;;
6217;SDS011;3142;48.206;11.550;2023-02-12T02:08:54;26.43;;;16.87;;
6217;SDS011;3142;48.206;11.550;2023-02-12T02:11:22;26.23;;;16.70;;
6217;SDS011;3142;48.206;11.550;2023-02-12T02:14:06;26.30;;;17.87;;
6217;SDS011;3142;48.206;11.550;2023-02-12T02:16:53;29.90;;;18.77;;
6217;SDS011;3142;48.206;11.550;2023-02-12T02:19:33;26.53;;;18.03;;
6217;SDS011;3142;48.206;11.550;2023-02-12T02:22:21;28.27;;;18.07;;
6217;SDS011;3142;48.206;11.550;2023-02-12T02:25:05;27.70;;;18.77;;
6217;SDS011;3142;48.206;11.550;2023-02-12T02:27:58;24.43;;;17.60;;
6217;SDS011;3142;48.206;11.550;2023-02-12T02:30:37;27.07;;;18.23;;
6217;SDS011;3142;48.206;11.550;2023-02-12T02:33:15;24.70;;;18.13;;
6217;SDS011;3142;48.206;11.550;2023-02-12T02:35:56;27.17;;;18.33;;
6217;SDS011;3142;48.206;11.550;2023-02-12T02:38:36;26.97;;;18.43;;
6217;SDS011;3142;48.206;11.550;2023-02-12T02:41:07;25.37;;;17.57;;
6217;SDS011;3142;48.206;11.550;2023-02-12T02:43:41;30.20;;;19.27;;
6217;SDS011;3142;48.206;11.550;2023-02-12T02:46:15;29.23;;;19.03;;
6217;SDS011;3142;48.206;11.550;2023-02-12T02:48:47;23.13;;;17.33;;
6217;SDS011;3142;48.206;11.550;2023-02-12T02:51:17;27.60;;;18.37;;
6217;SDS011;3142;48.206;11.550;2023-02-12T02:53:47;25.03;;;18.13;;
6217;SDS011;3142;48.206;11.550;2023-02-12T02:56:19;28.13;;;18.80;;
6217;SDS011;3142;48.206;11.550;2023-02-12T02:58:50;28.57;;;18.67;;
6217;SDS011;3142;48.206;11.550;2023-02-12T03:01:22;29.60;;;18.60;;
6217;SDS011;3142;48.206;11.550;2023-02-12T03:03:55;27.43;;;18.03;;
6217;SDS011;3142;48.206;11.550;2023-02-12T03:06:28;26.60;;;17.97;;
6217;SDS011;3142;48.206;11.550;2023-02-12T03:09:01;30.57;;;18.77;;
6217;SDS011;3142;48.206;11.550;2023-02-12T03:11:38;27.47;;;19.07;;
6217;SDS011;3142;48.206;11.550;2023-02-12T03:14:06;26.47;;;18.33;;
6217;SDS011;3142;48.206;11.550;2023-02-12T03:16:38;27.17;;;18.00;;
6217;SDS011;3142;48.206;11.550;2023-02-12T03:19:10;28.90;;;18.70;;
6217;SDS011;3142;48.206;11.550;2023-02-12T03:21:42;26.33;;;18.63;;
6217;SDS011;3142;48.206;11.550;2023-02-12T03:24:15;27.07;;;18.60;;
6217;SDS011;3142;48.206;11.550;2023-02-12T03:26:47;28.33;;;18.23;;
6217;SDS011;3142;48.206;11.550;2023-02-12T03:29:17;24.07;;;18.33;;
6217;SDS011;3142;48.206;11.550;2023-02-12T03:31:47;25.10;;;17.97;;
6217;SDS011;3142;48.206;11.550;2023-02-12T03:34:24;27.47;;;18.90;;
6217;SDS011;3142;48.206;11.550;2023-02-12T03:37:02;25.93;;;17.93;;
6217;SDS011;3142;48.206;11.550;2023-02-12T03:39:34;25.80;;;17.97;;
6217;SDS011;3142;48.206;11.550;2023-02-12T03:42:08;26.70;;;18.77;;
6217;SDS011;3142;48.206;11.550;2023-02-12T03:44:43;30.30;;;19.17;;
6217;SDS011;3142;48.206;11.550;2023-02-12T03:47:20;29.13;;;18.33;;
6217;SDS011;3142;48.206;11.550;2023-02-12T03:49:57;28.40;;;18.77;;
6217;SDS011;3142;48.206;11.550;2023-02-12T03:52:28;26.07;;;18.23;;
6217;SDS011;3142;48.206;11.550;2023-02-12T03:54:55;29.33;;;18.67;;
6217;SDS011;3142;48.206;11.550;2023-02-12T03:57:23;27.67;;;18.10;;
6217;SDS011;3142;48.206;11.550;2023-02-12T03:59:54;27.17;;;18.10;;
6217;SDS011;3142;48.206;11.550;2023-02-12T04:02:22;26.37;;;18.07;;
6217;SDS011;3142;48.206;11.550;2023-02-12T04:04:49;25.30;;;18.17;;
6217;SDS011;3142;48.206;11.550;2023-02-12T04:07:16;29.60;;;17.43;;
6217;SDS011;3142;48.206;11.550;2023-02-12T04:09:43;25.87;;;18.53;;
6217;SDS011;3142;48.206;11.550;2023-02-12T04:12:29;28.70;;;18.57;;
6217;SDS011;3142;48.206;11.550;2023-02-12T04:15:06;26.90;;;18.83;;
6217;SDS011;3142;48.206;11.550;2023-02-12T04:17:45;29.87;;;18.50;;
6217;SDS011;3142;48.206;11.550;2023-02-12T04:20:17;28.00;;;17.93;;
6217;SDS011;3142;48.206;11.550;2023-02-12T04:22:53;28.03;;;18.63;;
6217;SDS011;3142;48.206;11.550;2023-02-12T04:25:26;25.90;;;17.93;;
6217;SDS011;3142;48.206;11.550;2023-02-12T04:28:08;30.37;;;18.70;;
6217;SDS011;3142;48.206;11.550;2023-02-12T04:30:40;32.37;;;18.67;;
6217;SDS011;3142;48.206;11.550;2023-02-12T04:33:14;31.03;;;17.77;;
6217;SDS011;3142;48.206;11.550;2023-02-12T04:35:46;29.10;;;18.13;;
6217;SDS011;3142;48.206;11.550;2023-02-12T04:38:16;25.13;;;18.40;;
6217;SDS011;3142;48.206;11.550;2023-02-12T04:40:46;28.43;;;18.87;;
6217;SDS011;3142;48.206;11.550;2023-02-12T04:43:24;31.20;;;18.50;;
6217;SDS011;3142;48.206;11.550;2023-02-12T04:45:52;26.80;;;17.90;;
6217;SDS011;3142;48.206;11.550;2023-02-12T04:48:19;29.87;;;18.37;;
6217;SDS011;3142;48.206;11.550;2023-02-12T04:50:46;27.23;;;17.60;;
6217;SDS011;3142;48.206;11.550;2023-02-12T04:53:12;25.80;;;17.90;;
6217;SDS011;3142;48.206;11.550;2023-02-12T04:55:40;23.53;;;16.93;;
6217;SDS011;3142;48.206;11.550;2023-02-12T04:58:07;28.90;;;18.73;;
6217;SDS011;3142;48.206;11.550;2023-02-12T05:00:33;25.53;;;18.10;;
6217;SDS011;3142;48.206;11.550;2023-02-12T05:03:00;32.20;;;19.40;;
6217;SDS011;3142;48.206;11.550;2023-02-12T05:05:28;27.40;;;18.67;;
6217;SDS011;3142;48.206;11.550;2023-02-12T05:07:54;29.57;;;19.43;;
6217;SDS011;3142;48.206;11.550;2023-02-12T05:10:20;29.30;;;19.63;;
6217;SDS011;3142;48.206;11.550;2023-02-12T05:12:47;29.33;;;18.73;;
6217;SDS011;3142;48.206;11.550;2023-02-12T05:15:16;29.37;;;18.70;;
6217;SDS011;3142;48.206;11.550;2023-02-12T05:17:43;30.60;;;18.93;;
6217;SDS011;3142;48.206;11.550;2023-02-12T05:20:10;28.90;;;19.47;;
6217;SDS011;3142;48.206;11.550;2023-02-12T05:22:38;28.93;;;18.73;;
6217;SDS011;3142;48.206;11.550;2023-02-12T05:25:05;27.50;;;17.90;;
6217;SDS011;3142;48.206;11.550;2023-02-12T05:27:32;26.90;;;18.67;;
6217;SDS011;3142;48.206;11.550;2023-02-12T05:29:58;29.97;;;18.93;;
6217;SDS011;3142;48.206;11.550;2023-02-12T05:32:25;30.43;;;18.40;;
6217;SDS011;3142;48.206;11.550;2023-02-12T05:34:51;33.60;;;18.33;;
6217;SDS011;3142;48.206;11.550;2023-02-12T05:37:17;26.40;;;18.67;;
6217;SDS011;3142;48.206;11.550;2023-02-12T05:39:45;28.33;;;18.57;;
6217;SDS011;3142;48.206;11.550;2023-02-12T05:42:14;32.67;;;19.37;;
6217;SDS011;3142;48.206;11.550;2023-02-12T05:44:40;30.97;;;20.33;;
6217;SDS011;3142;48.206;11.550;2023-02-12T05:47:06;28.70;;;19.03;;
6217;SDS011;3142;48.206;11.550;2023-02-12T05:49:33;30.27;;;19.00;;
6217;SDS011;3142;48.206;11.550;2023-02-12T05:51:59;34.03;;;21.30;;
6217;SDS011;3142;48.206;11.550;2023-02-12T05:54:26;35.23;;;21.63;;
6217;SDS011;3142;48.206;11.550;2023-02-12T05:56:53;31.20;;;20.77;;
6217;SDS011;3142;48.206;11.550;2023-02-12T05:59:20;36.40;;;21.57;;
6217;SDS011;3142;48.206;11.550;2023-02-12T06:01:48;32.53;;;21.20;;
6217;SDS011;3142;48.206;11.550;2023-02-12T06:04:18;35.17;;;22.80;;
6217;SDS011;3142;48.206;11.550;2023-02-12T06:06:45;51.40;;;32.17;;
6217;SDS011;3142;48.206;11.550;2023-02-12T06:09:12;71.17;;;44.63;;
6217;SDS011;3142;48.206;11.550;2023-02-12T06:11:39;85.20;;;50.83;;
6217;SDS011;3142;48.206;11.550;2023-02-12T06:14:08;74.10;;;43.93;;
6217;SDS011;3142;48.206;11.550;2023-02-12T06:16:37;41.33;;;26.07;;
6217;SDS011;3142;48.206;11.550;2023-02-12T06:19:04;34.83;;;22.90;;
6217;SDS011;3142;48.206;11.550;2023-02-12T06:21:31;31.47;;;22.13;;
6217;SDS011;3142;48.206;11.550;2023-02-12T06:23:59;33.63;;;22.27;;
6217;SDS011;3142;48.206;11.550;2023-02-12T06:26:25;32.23;;;22.20;;
6217;SDS011;3142;48.206;11.550;2023-02-12T06:28:52;32.30;;;21.70;;
6217;SDS011;3142;48.206;11.550;2023-02-12T06:31:21;31.83;;;21.70;;
6217;SDS011;3142;48.206;11.550;2023-02-12T06:33:49;40.00;;;22.27;;
6217;SDS011;3142;48.206;11.550;2023-02-12T06:36:16;35.00;;;23.07;;
6217;SDS011;3142;48.206;11.550;2023-02-12T06:38:44;38.60;;;23.37;;
6217;SDS011;3142;48.206;11.550;2023-02-12T06:41:11;38.10;;;22.77;;
6217;SDS011;3142;48.206;11.550;2023-02-12T06:43:38;33.00;;;22.63;;
6217;SDS011;3142;48.206;11.550;2023-02-12T06:46:04;41.37;;;23.33;;
6217;SDS011;3142;48.206;11.550;2023-02-12T06:48:33;43.03;;;25.77;;
6217;SDS011;3142;48.206;11.550;2023-02-12T06:51:03;51.70;;;32.10;;
6217;SDS011;3142;48.206;11.550;2023-02-12T06:53:31;42.23;;;26.20;;
6217;SDS011;3142;48.206;11.550;2023-02-12T06:55:59;47.90;;;29.00;;
6217;SDS011;3142;48.206;11.550;2023-02-12T06:58:25;44.37;;;24.90;;
6217;SDS011;3142;48.206;11.550;2023-02-12T07:00:52;35.40;;;24.43;;
6217;SDS011;3142;48.206;11.550;2023-02-12T07:03:18;39.80;;;24.30;;
6217;SDS011;3142;48.206;11.550;2023-02-12T07:05:46;43.37;;;25.13;;
6217;SDS011;3142;48.206;11.550;2023-02-12T07:08:13;37.67;;;25.07;;
6217;SDS011;3142;48.206;11.550;2023-02-12T07:10:39;42.80;;;26.97;;
6217;SDS011;3142;48.206;11.550;2023-02-12T07:13:06;41.07;;;26.83;;
6217;SDS011;3142;48.206;11.550;2023-02-12T07:15:32;41.70;;;24.67;;
6217;SDS011;3142;48.206;11.550;2023-02-12T07:17:59;41.17;;;25.73;;
6217;SDS011;3142;48.206;11.550;2023-02-12T07:20:25;39.83;;;26.30;;
6217;SDS011;3142;48.206;11.550;2023-02-12T07:22:53;44.00;;;26.60;;
6217;SDS011;3142;48.206;11.550;2023-02-12T07:25:19;44.30;;;26.20;;
6217;SDS011;3142;48.206;11.550;2023-02-12T07:27:46;48.07;;;27.00;;
6217;SDS011;3142;48.206;11.550;2023-02-12T07:30:12;48.70;;;26.87;;
6217;SDS011;3142;48.206;11.550;2023-02-12T07:32:39;44.43;;;26.10;;
6217;SDS011;3142;48.206;11.550;2023-02-12T07:35:06;47.10;;;27.67;;
6217;SDS011;3142;48.206;11.550;2023-02-12T07:37:33;43.80;;;25.00;;
6217;SDS011;3142;48.206;11.550;2023-02-12T07:40:01;43.83;;;25.77;;
6217;SDS011;3142;48.206;11.550;2023-02-12T07:42:27;51.60;;;27.80;;
6217;SDS011;3142;48.206;11.550;2023-02-12T07:44:54;43.50;;;26.03;;
6217;SDS011;3142;48.206;11.550;2023-02-12T07:47:20;49.33;;;27.03;;
6217;SDS011;3142;48.206;11.550;2023-02-12T07:49:47;42.93;;;27.20;;
6217;SDS011;3142;48.206;11.550;2023-02-12T07:52:13;46.73;;;27.20;;
6217;SDS011;3142;48.206;11.550;2023-02-12T07:54:39;48.00;;;27.73;;
6217;SDS011;3142;48.206;11.550;2023-02-12T07:57:07;53.67;;;29.03;;
6217;SDS011;3142;48.206;11.550;2023-02-12T07:59:34;54.00;;;31.23;;
6217;SDS011;3142;48.206;11.550;2023-02-12T08:02:00;46.43;;;27.70;;
6217;SDS011;3142;48.206;11.550;2023-02-12T08:04:27;44.10;;;26.80;;
6217;SDS011;3142;48.206;11.550;2023-02-12T08:06:54;43.23;;;26.03;;
6217;SDS011;3142;48.206;11.550;2023-02-12T08:09:22;44.87;;;26.90;;
6217;SDS011;3142;48.206;11.550;2023-02-12T08:11:51;54.83;;;27.73;;
6217;SDS011;3142;48.206;11.550;2023-02-12T08:14:20;48.93;;;27.43;;
6217;SDS011;3142;48.206;11.550;2023-02-12T08:16:47;48.83;;;27.90;;
6217;SDS011;3142;48.206;11.550;2023-02-12T08:19:14;48.43;;;28.03;;
6217;SDS011;3142;48.206;11.550;2023-02-12T08:21:41;49.97;;;26.83;;
6217;SDS011;3142;48.206;11.550;2023-02-12T08:24:08;48.63;;;27.67;;
6217;SDS011;3142;48.206;11.550;2023-02-12T08:26:36;52.03;;;30.83;;
6217;SDS011;3142;48.206;11.550;2023-02-12T08:29:04;73.37;;;43.50;;
6217;SDS011;3142;48.206;11.550;2023-02-12T08:31:33;55.10;;;30.37;;
6217;SDS011;3142;48.206;11.550;2023-02-12T08:34:01;44.57;;;27.80;;
6217;SDS011;3142;48.206;11.550;2023-02-12T08:36:28;45.67;;;27.13;;
6217;SDS011;3142;48.206;11.550;2023-02-12T08:38:56;45.57;;;26.53;;
6217;SDS011;3142;48.206;11.550;2023-02-12T08:41:25;49.40;;;29.60;;
6217;SDS011;3142;48.206;11.550;2023-02-12T08:43:53;49.70;;;27.80;;
6217;SDS011;3142;48.206;11.550;2023-02-12T08:46:22;55.70;;;31.53;;
6217;SDS011;3142;48.206;11.550;2023-02-12T08:48:52;89.33;;;50.80;;
6217;SDS011;3142;48.206;11.550;2023-02-12T08:51:20;139.03;;;75.97;;
6217;SDS011;3142;48.206;11.550;2023-02-12T08:53:50;61.13;;;33.73;;
6217;SDS011;3142;48.206;11.550;2023-02-12T08:56:18;48.67;;;28.27;;
6217;SDS011;3142;48.206;11.550;2023-02-12T08:58:45;44.97;;;27.37;;
6217;SDS011;3142;48.206;11.550;2023-02-12T09:01:13;42.73;;;25.80;;
6217;SDS011;3142;48.206;11.550;2023-02-12T09:03:41;43.20;;;26.20;;
6217;SDS011;3142;48.206;11.550;2023-02-12T09:06:09;41.47;;;25.17;;
6217;SDS011;3142;48.206;11.550;2023-02-12T09:08:36;44.97;;;25.70;;
6217;SDS011;3142;48.206;11.550;2023-02-12T09:11:04;42.07;;;24.97;;
6217;SDS011;3142;48.206;11.550;2023-02-12T09:13:32;43.47;;;25.97;;
6217;SDS011;3142;48.206;11.550;2023-02-12T09:15:59;39.53;;;24.27;;
6217;SDS011;3142;48.206;11.550;2023-02-12T09:18:27;45.23;;;28.73;;
6217;SDS011;3142;48.206;11.550;2023-02-12T09:20:54;69.80;;;37.73;;
6217;SDS011;3142;48.206;11.550;2023-02-12T09:23:21;61.80;;;39.00;;
6217;SDS011;3142;48.206;11.550;2023-02-12T09:25:48;41.03;;;25.37;;
6217;SDS011;3142;48.206;11.550;2023-02-12T09:28:14;35.43;;;23.83;;
6217;SDS011;3142;48.206;11.550;2023-02-12T09:30:41;117.77;;;64.40;;
6217;SDS011;3142;48.206;11.550;2023-02-12T09:33:08;50.37;;;29.73;;
6217;SDS011;3142;48.206;11.550;2023-02-12T09:35:36;33.27;;;21.00;;
6217;SDS011;3142;48.206;11.550;2023-02-12T09:38:04;31.70;;;19.07;;
6217;SDS011;3142;48.206;11.550;2023-02-12T09:40:35;29.47;;;17.63;;
6217;SDS011;3142;48.206;11.550;2023-02-12T09:43:10;29.57;;;18.40;;
6217;SDS011;3142;48.206;11.550;2023-02-12T09:45:43;30.13;;;19.90;;
6217;SDS011;3142;48.206;11.550;2023-02-12T09:48:26;31.03;;;19.93;;
6217;SDS011;3142;48.206;11.550;2023-02-12T09:51:01;36.40;;;22.03;;
6217;SDS011;3142;48.206;11.550;2023-02-12T09:53:31;38.13;;;21.27;;
6217;SDS011;3142;48.206;11.550;2023-02-12T09:56:07;35.37;;;21.57;;
6217;SDS011;3142;48.206;11.550;2023-02-12T09:58:40;30.33;;;19.23;;
6217;SDS011;3142;48.206;11.550;2023-02-12T10:01:09;30.17;;;17.83;;
6217;SDS011;3142;48.206;11.550;2023-02-12T10:03:38;26.83;;;16.60;;
6217;SDS011;3142;48.206;11.550;2023-02-12T10:06:06;29.37;;;18.13;;
6217;SDS011;3142;48.206;11.550;2023-02-12T10:08:39;31.97;;;18.23;;
6217;SDS011;3142;48.206;11.550;2023-02-12T10:11:23;11.00;;;7.30;;
6217;SDS011;3142;48.206;11.550;2023-02-12T10:14:02;10.70;;;6.53;;
6217;SDS011;3142;48.206;11.550;2023-02-12T10:16:42;10.63;;;6.80;;
6217;SDS011;3142;48.206;11.550;2023-02-12T10:19:22;12.23;;;7.20;;
6217;SDS011;3142;48.206;11.550;2023-02-12T10:22:05;10.43;;;7.40;;
6217;SDS011;3142;48.206;11.550;2023-02-12T10:24:42;10.73;;;7.30;;
6217;SDS011;3142;48.206;11.550;2023-02-12T10:27:30;8.77;;;4.73;;
6217;SDS011;3142;48.206;11.550;2023-02-12T10:30:03;13.03;;;9.30;;
6217;SDS011;3142;48.206;11.550;2023-02-12T10:32:39;9.67;;;7.00;;
6217;SDS011;3142;48.206;11.550;2023-02-12T10:35:11;13.00;;;8.87;;
6217;SDS011;3142;48.206;11.550;2023-02-12T10:37:39;5.47;;;4.20;;
6217;SDS011;3142;48.206;11.550;2023-02-12T10:40:14;5.40;;;3.80;;
6217;SDS011;3142;48.206;11.550;2023-02-12T10:42:47;5.13;;;4.30;;
6217;SDS011;3142;48.206;11.550;2023-02-12T10:45:16;8.77;;;5.13;;
6217;SDS011;3142;48.206;11.550;2023-02-12T10:47:44;5.73;;;4.80;;
6217;SDS011;3142;48.206;11.550;2023-02-12T10:50:15;4.30;;;3.10;;
6217;SDS011;3142;48.206;11.550;2023-02-12T10:52:46;26.07;;;14.20;;
6217;SDS011;3142;48.206;11.550;2023-02-12T10:55:24;13.60;;;8.23;;
6217;SDS011;3142;48.206;11.550;2023-02-12T10:57:54;5.30;;;4.00;;
6217;SDS011;3142;48.206;11.550;2023-02-12T11:00:22;4.63;;;3.07;;
6217;SDS011;3142;48.206;11.550;2023-02-12T11:03:04;6.27;;;4.97;;
6217;SDS011;3142;48.206;11.550;2023-02-12T11:05:43;5.97;;;4.43;;
6217;SDS011;3142;48.206;11.550;2023-02-12T11:08:14;16.43;;;10.93;;
6217;SDS011;3142;48.206;11.550;2023-02-12T11:10:53;5.93;;;4.17;;
6217;SDS011;3142;48.206;11.550;2023-02-12T11:13:23;2.13;;;1.83;;
6217;SDS011;3142;48.206;11.550;2023-02-12T11:15:51;2.33;;;1.80;;
6217;SDS011;3142;48.206;11.550;2023-02-12T11:18:20;3.30;;;2.47;;
6217;SDS011;3142;48.206;11.550;2023-02-12T11:20:50;1.60;;;1.50;;
6217;SDS011;3142;48.206;11.550;2023-02-12T11:23:24;3.20;;;1.60;;
6217;SDS011;3142;48.206;11.550;2023-02-12T11:25:54;4.10;;;1.80;;
6217;SDS011;3142;48.206;11.550;2023-02-12T11:28:24;2.90;;;1.90;;
6217;SDS011;3142;48.206;11.550;2023-02-12T11:30:52;4.07;;;2.17;;
6217;SDS011;3142;48.206;11.550;2023-02-12T11:33:22;5.63;;;2.17;;
6217;SDS011;3142;48.206;11.550;2023-02-12T11:35:52;5.13;;;2.10;;
6217;SDS011;3142;48.206;11.550;2023-02-12T11:38:22;3.13;;;2.10;;
6217;SDS011;3142;48.206;11.550;2023-02-12T11:40:53;2.63;;;2.40;;
6217;SDS011;3142;48.206;11.550;2023-02-12T11:43:24;3.40;;;2.50;;
6217;SDS011;3142;48.206;11.550;2023-02-12T11:45:53;3.20;;;2.53;;
6217;SDS011;3142;48.206;11.550;2023-02-12T11:48:22;2.67;;;2.43;;
6217;SDS011;3142;48.206;11.550;2023-02-12T11:50:53;3.00;;;2.70;;
6217;SDS011;3142;48.206;11.550;2023-02-12T11:53:22;3.60;;;2.53;;
6217;SDS011;3142;48.206;11.550;2023-02-12T11:55:53;3.43;;;2.87;;
6217;SDS011;3142;48.206;11.550;2023-02-12T11:58:24;3.87;;;2.70;;
6217;SDS011;3142;48.206;11.550;2023-02-12T12:00:53;3.80;;;3.10;;
6217;SDS011;3142;48.206;11.550;2023-02-12T12:03:27;4.47;;;3.50;;
6217;SDS011;3142;48.206;11.550;2023-02-12T12:05:58;4.50;;;3.40;;
6217;SDS011;3142;48.206;11.550;2023-02-12T12:08:31;5.67;;;3.50;;
6217;SDS011;3142;48.206;11.550;2023-02-12T12:11:06;3.97;;;3.30;;
6217;SDS011;3142;48.206;11.550;2023-02-12T12:13:40;4.83;;;3.60;;
6217;SDS011;3142;48.206;11.550;2023-02-12T12:16:13;4.13;;;3.23;;
6217;SDS011;3142;48.206;11.550;2023-02-12T12:19:02;4.40;;;3.07;;
6217;SDS011;3142;48.206;11.550;2023-02-12T12:21:53;5.10;;;2.70;;
6217;SDS011;3142;48.206;11.550;2023-02-12T12:24:28;4.57;;;3.40;;
6217;SDS011;3142;48.206;11.550;2023-02-12T12:27:03;12.30;;;8.10;;
6217;SDS011;3142;48.206;11.550;2023-02-12T12:30:01;13.53;;;8.57;;
6217;SDS011;3142;48.206;11.550;2023-02-12T12:32:33;8.80;;;5.77;;
6217;SDS011;3142;48.206;11.550;2023-02-12T12:35:02;7.73;;;5.43;;
6217;SDS011;3142;48.206;11.550;2023-02-12T12:37:32;8.83;;;6.53;;
6217;SDS011;3142;48.206;11.550;2023-02-12T12:40:08;6.73;;;5.50;;
6217;SDS011;3142;48.206;11.550;2023-02-12T12:43:01;7.83;;;5.40;;
6217;SDS011;3142;48.206;11.550;2023-02-12T12:45:46;10.07;;;5.60;;
6217;SDS011;3142;48.206;11.550;2023-02-12T12:48:32;9.07;;;7.00;;
6217;SDS011;3142;48.206;11.550;2023-02-12T12:51:17;7.47;;;5.73;;
6217;SDS011;3142;48.206;11.550;2023-02-12T12:53:57;8.80;;;6.30;;
6217;SDS011;3142;48.206;11.550;2023-02-12T12:56:41;7.03;;;5.67;;
6217;SDS011;3142;48.206;11.550;2023-02-12T13:02:34;7.70;;;5.07;;
6217;SDS011;3142;48.206;11.550;2023-02-12T13:05:22;8.67;;;6.30;;
6217;SDS011;3142;48.206;11.550;2023-02-12T13:08:11;8.57;;;6.23;;
6217;SDS011;3142;48.206;11.550;2023-02-12T13:10:52;8.60;;;5.93;;
6217;SDS011;3142;48.206;11.550;2023-02-12T13:13:24;7.70;;;4.97;;
6217;SDS011;3142;48.206;11.550;2023-02-12T13:15:58;5.70;;;4.87;;
6217;SDS011;3142;48.206;11.550;2023-02-12T13:18:34;6.33;;;5.27;;
6217;SDS011;3142;48.206;11.550;2023-02-12T13:21:11;7.93;;;5.07;;
6217;SDS011;3142;48.206;11.550;2023-02-12T13:23:45;7.53;;;5.47;;
6217;SDS011;3142;48.206;11.550;2023-02-12T13:26:16;6.90;;;4.60;;
6217;SDS011;3142;48.206;11.550;2023-02-12T13:28:55;6.83;;;4.90;;
6217;SDS011;3142;48.206;11.550;2023-02-12T13:31:25;6.93;;;5.03;;
6217;SDS011;3142;48.206;11.550;2023-02-12T13:33:57;7.70;;;5.27;;
6217;SDS011;3142;48.206;11.550;2023-02-12T13:36:25;9.43;;;6.90;;
6217;SDS011;3142;48.206;11.550;2023-02-12T13:38:54;13.47;;;9.23;;
6217;SDS011;3142;48.206;11.550;2023-02-12T13:41:25;10.43;;;8.03;;
6217;SDS011;3142;48.206;11.550;2023-02-12T13:43:58;10.90;;;8.00;;
6217;SDS011;3142;48.206;11.550;2023-02-12T13:46:32;11.20;;;8.47;;
6217;SDS011;3142;48.206;11.550;2023-02-12T13:49:12;15.03;;;10.53;;
6217;SDS011;3142;48.206;11.550;2023-02-12T13:51:49;33.10;;;21.90;;
6217;SDS011;3142;48.206;11.550;2023-02-12T13:54:26;21.77;;;14.33;;
6217;SDS011;3142;48.206;11.550;2023-02-12T13:57:06;19.93;;;12.67;;
6217;SDS011;3142;48.206;11.550;2023-02-12T13:59:37;18.00;;;11.97;;
6217;SDS011;3142;48.206;11.550;2023-02-12T14:02:24;15.70;;;11.27;;
6217;SDS011;3142;48.206;11.550;2023-02-12T14:05:16;14.60;;;9.90;;
6217;SDS011;3142;48.206;11.550;2023-02-12T14:07:47;14.13;;;9.77;;
6217;SDS011;3142;48.206;11.550;2023-02-12T14:10:22;13.23;;;9.77;;
6217;SDS011;3142;48.206;11.550;2023-02-12T14:12:51;12.33;;;9.07;;
6217;SDS011;3142;48.206;11.550;2023-02-12T14:15:24;13.80;;;9.83;;
6217;SDS011;3142;48.206;11.550;2023-02-12T14:17:55;12.57;;;9.00;;
6217;SDS011;3142;48.206;11.550;2023-02-12T14:20:32;15.17;;;10.10;;
6217;SDS011;3142;48.206;11.550;2023-02-12T14:25:54;22.53;;;15.63;;
6217;SDS011;3142;48.206;11.550;2023-02-12T14:28:26;14.87;;;8.77;;
6217;SDS011;3142;48.206;11.550;2023-02-12T14:37:10;11.30;;;7.97;;
6217;SDS011;3142;48.206;11.550;2023-02-12T14:39:40;21.53;;;12.17;;
6217;SDS011;3142;48.206;11.550;2023-02-12T14:47:54;8.83;;;6.40;;
6217;SDS011;3142;48.206;11.550;2023-02-12T14:50:25;8.73;;;5.70;;
6217;SDS011;3142;48.206;11.550;2023-02-12T14:52:59;8.83;;;6.67;;
6217;SDS011;3142;48.206;11.550;2023-02-12T14:55:31;11.20;;;6.90;;
6217;SDS011;3142;48.206;11.550;2023-02-12T14:58:00;9.37;;;6.80;;
6217;SDS011;3142;48.206;11.550;2023-02-12T15:00:31;8.90;;;5.97;;
6217;SDS011;3142;48.206;11.550;2023-02-12T15:03:02;7.17;;;5.63;;
6217;SDS011;3142;48.206;11.550;2023-02-12T15:05:46;8.23;;;6.10;;
6217;SDS011;3142;48.206;11.550;2023-02-12T15:08:21;10.63;;;6.90;;
6217;SDS011;3142;48.206;11.550;2023-02-12T15:10:53;9.40;;;6.73;;
6217;SDS011;3142;48.206;11.550;2023-02-12T15:13:25;11.37;;;8.03;;
6217;SDS011;3142;48.206;11.550;2023-02-12T15:15:54;30.47;;;18.23;;
6217;SDS011;3142;48.206;11.550;2023-02-12T15:18:25;21.80;;;15.10;;
6217;SDS011;3142;48.206;11.550;2023-02-12T15:20:58;42.10;;;29.67;;